sensor_id;sensor_type;location;lat;lon;timestamp;P1;durP1;ratioP1;P2;durP2;ratioP2
48052;SDS011;33824;51.600;5.718;2023-03-13T00:00:15;17.92;;;2.53;;
48052;SDS011;33824;51.600;5.718;2023-03-13T00:03:01;21.40;;;2.78;;
48052;SDS011;33824;51.600;5.718;2023-03-13T00:05:27;22.60;;;3.38;;
48052;SDS011;33824;51.600;5.718;2023-03-13T00:07:52;19.83;;;3.53;;
48052;SDS011;33824;51.600;5.718;2023-03-13T00:10:18;20.88;;;3.28;;
48052;SDS011;33824;51.600;5.718;2023-03-13T00:12:43;17.15;;;3.10;;
48052;SDS011;33824;51.600;5.718;2023-03-13T00:15:09;20.55;;;2.58;;
48052;SDS011;33824;51.600;5.718;2023-03-13T00:17:35;31.05;;;4.22;;
48052;SDS011;33824;51.600;5.718;2023-03-13T00:20:00;21.48;;;2.63;;
48052;SDS011;33824;51.600;5.718;2023-03-13T00:22:26;12.20;;;2.70;;
48052;SDS011;33824;51.600;5.718;2023-03-13T00:24:51;14.75;;;2.72;;
48052;SDS011;33824;51.600;5.718;2023-03-13T00:27:17;17.35;;;2.40;;
48052;SDS011;33824;51.600;5.718;2023-03-13T00:29:42;14.02;;;3.17;;
48052;SDS011;33824;51.600;5.718;2023-03-13T00:32:08;19.35;;;3.40;;
48052;SDS011;33824;51.600;5.718;2023-03-13T00:34:33;16.38;;;2.47;;
48052;SDS011;33824;51.600;5.718;2023-03-13T00:36:59;13.93;;;3.15;;
48052;SDS011;33824;51.600;5.718;2023-03-13T00:39:24;14.27;;;2.78;;
48052;SDS011;33824;51.600;5.718;2023-03-13T00:41:50;16.00;;;2.38;;
48052;SDS011;33824;51.600;5.718;2023-03-13T00:44:15;15.25;;;2.75;;
48052;SDS011;33824;51.600;5.718;2023-03-13T00:46:41;14.88;;;2.97;;
48052;SDS011;33824;51.600;5.718;2023-03-13T00:49:06;13.65;;;2.25;;
48052;SDS011;33824;51.600;5.718;2023-03-13T00:51:33;20.20;;;3.53;;
48052;SDS011;33824;51.600;5.718;2023-03-13T00:53:59;16.67;;;2.47;;
48052;SDS011;33824;51.600;5.718;2023-03-13T00:56:25;30.13;;;3.38;;
48052;SDS011;33824;51.600;5.718;2023-03-13T00:58:52;26.50;;;3.55;;
48052;SDS011;33824;51.600;5.718;2023-03-13T01:01:22;16.65;;;2.80;;
48052;SDS011;33824;51.600;5.718;2023-03-13T01:03:50;17.50;;;2.35;;
48052;SDS011;33824;51.600;5.718;2023-03-13T01:06:19;26.48;;;2.95;;
48052;SDS011;33824;51.600;5.718;2023-03-13T01:08:46;15.57;;;2.70;;
48052;SDS011;33824;51.600;5.718;2023-03-13T01:11:13;14.20;;;2.35;;
48052;SDS011;33824;51.600;5.718;2023-03-13T01:13:41;17.77;;;2.88;;
48052;SDS011;33824;51.600;5.718;2023-03-13T01:16:09;15.90;;;2.70;;
48052;SDS011;33824;51.600;5.718;2023-03-13T01:18:41;13.43;;;2.15;;
48052;SDS011;33824;51.600;5.718;2023-03-13T01:21:09;14.30;;;2.95;;
48052;SDS011;33824;51.600;5.718;2023-03-13T01:23:35;11.60;;;2.97;;
48052;SDS011;33824;51.600;5.718;2023-03-13T01:26:02;20.52;;;3.08;;
48052;SDS011;33824;51.600;5.718;2023-03-13T01:28:32;15.65;;;2.45;;
48052;SDS011;33824;51.600;5.718;2023-03-13T01:30:58;16.05;;;2.17;;
48052;SDS011;33824;51.600;5.718;2023-03-13T01:33:24;14.38;;;2.28;;
48052;SDS011;33824;51.600;5.718;2023-03-13T01:35:49;14.20;;;2.40;;
48052;SDS011;33824;51.600;5.718;2023-03-13T01:38:15;16.33;;;1.98;;
48052;SDS011;33824;51.600;5.718;2023-03-13T01:40:45;17.63;;;2.75;;
48052;SDS011;33824;51.600;5.718;2023-03-13T01:43:16;13.50;;;3.28;;
48052;SDS011;33824;51.600;5.718;2023-03-13T01:51:05;9.25;;;1.73;;
48052;SDS011;33824;51.600;5.718;2023-03-13T01:53:39;9.43;;;2.08;;
48052;SDS011;33824;51.600;5.718;2023-03-13T01:56:09;11.20;;;2.05;;
48052;SDS011;33824;51.600;5.718;2023-03-13T01:58:41;11.13;;;1.92;;
48052;SDS011;33824;51.600;5.718;2023-03-13T02:01:07;14.23;;;1.88;;
48052;SDS011;33824;51.600;5.718;2023-03-13T02:03:33;10.32;;;1.52;;
48052;SDS011;33824;51.600;5.718;2023-03-13T02:06:01;10.75;;;1.92;;
48052;SDS011;33824;51.600;5.718;2023-03-13T02:08:30;11.38;;;2.28;;
48052;SDS011;33824;51.600;5.718;2023-03-13T02:11:11;8.45;;;1.58;;
48052;SDS011;33824;51.600;5.718;2023-03-13T02:13:44;10.43;;;1.67;;
48052;SDS011;33824;51.600;5.718;2023-03-13T02:16:10;4.97;;;1.83;;
48052;SDS011;33824;51.600;5.718;2023-03-13T02:18:36;8.40;;;1.73;;
48052;SDS011;33824;51.600;5.718;2023-03-13T02:21:13;6.65;;;2.15;;
48052;SDS011;33824;51.600;5.718;2023-03-13T02:26:54;5.07;;;1.25;;
48052;SDS011;33824;51.600;5.718;2023-03-13T02:29:19;8.20;;;2.08;;
48052;SDS011;33824;51.600;5.718;2023-03-13T02:31:46;6.63;;;1.70;;
48052;SDS011;33824;51.600;5.718;2023-03-13T02:34:16;10.93;;;1.92;;
48052;SDS011;33824;51.600;5.718;2023-03-13T02:36:44;10.02;;;1.38;;
48052;SDS011;33824;51.600;5.718;2023-03-13T02:39:11;3.90;;;1.52;;
48052;SDS011;33824;51.600;5.718;2023-03-13T02:41:40;7.15;;;1.48;;
48052;SDS011;33824;51.600;5.718;2023-03-13T02:44:08;5.60;;;1.85;;
48052;SDS011;33824;51.600;5.718;2023-03-13T02:46:47;9.43;;;1.92;;
48052;SDS011;33824;51.600;5.718;2023-03-13T02:51:51;7.28;;;1.90;;
48052;SDS011;33824;51.600;5.718;2023-03-13T02:54:19;9.25;;;1.75;;
48052;SDS011;33824;51.600;5.718;2023-03-13T02:56:48;5.68;;;1.67;;
48052;SDS011;33824;51.600;5.718;2023-03-13T02:59:19;10.10;;;1.88;;
48052;SDS011;33824;51.600;5.718;2023-03-13T03:01:45;5.47;;;1.83;;
48052;SDS011;33824;51.600;5.718;2023-03-13T03:04:11;8.18;;;2.33;;
48052;SDS011;33824;51.600;5.718;2023-03-13T03:06:36;4.70;;;1.75;;
48052;SDS011;33824;51.600;5.718;2023-03-13T03:09:02;4.03;;;1.60;;
48052;SDS011;33824;51.600;5.718;2023-03-13T03:11:28;2.95;;;1.58;;
48052;SDS011;33824;51.600;5.718;2023-03-13T03:13:54;7.55;;;1.92;;
48052;SDS011;33824;51.600;5.718;2023-03-13T03:16:19;10.13;;;2.35;;
48052;SDS011;33824;51.600;5.718;2023-03-13T03:18:45;8.68;;;2.20;;
48052;SDS011;33824;51.600;5.718;2023-03-13T03:21:11;6.72;;;1.90;;
48052;SDS011;33824;51.600;5.718;2023-03-13T03:23:37;7.95;;;2.33;;
48052;SDS011;33824;51.600;5.718;2023-03-13T03:26:03;5.07;;;1.70;;
48052;SDS011;33824;51.600;5.718;2023-03-13T03:28:30;8.05;;;2.58;;
48052;SDS011;33824;51.600;5.718;2023-03-13T03:30:55;7.25;;;2.38;;
48052;SDS011;33824;51.600;5.718;2023-03-13T03:33:22;4.65;;;2.38;;
48052;SDS011;33824;51.600;5.718;2023-03-13T03:35:48;6.22;;;2.00;;
48052;SDS011;33824;51.600;5.718;2023-03-13T03:38:15;5.50;;;2.88;;
48052;SDS011;33824;51.600;5.718;2023-03-13T03:40:40;6.60;;;2.08;;
48052;SDS011;33824;51.600;5.718;2023-03-13T03:43:06;8.52;;;2.00;;
48052;SDS011;33824;51.600;5.718;2023-03-13T03:45:32;2.97;;;1.85;;
48052;SDS011;33824;51.600;5.718;2023-03-13T03:47:57;4.32;;;1.77;;
48052;SDS011;33824;51.600;5.718;2023-03-13T03:50:26;3.05;;;2.00;;
48052;SDS011;33824;51.600;5.718;2023-03-13T03:52:52;5.38;;;1.95;;
48052;SDS011;33824;51.600;5.718;2023-03-13T03:55:18;4.85;;;1.70;;
48052;SDS011;33824;51.600;5.718;2023-03-13T03:57:44;7.53;;;2.00;;
48052;SDS011;33824;51.600;5.718;2023-03-13T04:00:10;3.83;;;1.75;;
48052;SDS011;33824;51.600;5.718;2023-03-13T04:02:38;2.40;;;1.75;;
48052;SDS011;33824;51.600;5.718;2023-03-13T04:05:04;5.03;;;1.77;;
48052;SDS011;33824;51.600;5.718;2023-03-13T04:07:29;4.50;;;1.63;;
48052;SDS011;33824;51.600;5.718;2023-03-13T04:09:55;3.45;;;1.60;;
48052;SDS011;33824;51.600;5.718;2023-03-13T04:12:20;3.10;;;1.73;;
48052;SDS011;33824;51.600;5.718;2023-03-13T04:14:46;3.53;;;1.50;;
48052;SDS011;33824;51.600;5.718;2023-03-13T04:17:12;4.38;;;1.67;;
48052;SDS011;33824;51.600;5.718;2023-03-13T04:19:38;3.88;;;1.55;;
48052;SDS011;33824;51.600;5.718;2023-03-13T04:22:03;5.78;;;2.33;;
48052;SDS011;33824;51.600;5.718;2023-03-13T04:24:29;4.80;;;1.60;;
48052;SDS011;33824;51.600;5.718;2023-03-13T04:26:54;5.75;;;2.30;;
48052;SDS011;33824;51.600;5.718;2023-03-13T04:29:20;6.80;;;1.65;;
48052;SDS011;33824;51.600;5.718;2023-03-13T04:31:45;4.15;;;1.90;;
48052;SDS011;33824;51.600;5.718;2023-03-13T04:34:11;5.18;;;1.80;;
48052;SDS011;33824;51.600;5.718;2023-03-13T04:36:37;5.18;;;1.92;;
48052;SDS011;33824;51.600;5.718;2023-03-13T04:39:02;7.60;;;2.72;;
48052;SDS011;33824;51.600;5.718;2023-03-13T04:41:28;3.22;;;1.75;;
48052;SDS011;33824;51.600;5.718;2023-03-13T04:43:54;5.20;;;2.10;;
48052;SDS011;33824;51.600;5.718;2023-03-13T04:46:19;3.28;;;1.50;;
48052;SDS011;33824;51.600;5.718;2023-03-13T04:48:45;5.45;;;2.00;;
48052;SDS011;33824;51.600;5.718;2023-03-13T04:51:11;4.18;;;2.08;;
48052;SDS011;33824;51.600;5.718;2023-03-13T04:53:37;5.25;;;1.85;;
48052;SDS011;33824;51.600;5.718;2023-03-13T04:56:03;3.83;;;1.90;;
48052;SDS011;33824;51.600;5.718;2023-03-13T04:58:29;6.05;;;2.10;;
48052;SDS011;33824;51.600;5.718;2023-03-13T05:00:55;4.30;;;1.77;;
48052;SDS011;33824;51.600;5.718;2023-03-13T05:03:21;3.85;;;1.50;;
48052;SDS011;33824;51.600;5.718;2023-03-13T05:05:47;3.17;;;1.70;;
48052;SDS011;33824;51.600;5.718;2023-03-13T05:08:13;4.68;;;1.95;;
48052;SDS011;33824;51.600;5.718;2023-03-13T05:10:40;5.32;;;1.80;;
48052;SDS011;33824;51.600;5.718;2023-03-13T05:13:06;3.88;;;1.80;;
48052;SDS011;33824;51.600;5.718;2023-03-13T05:15:35;2.22;;;1.35;;
48052;SDS011;33824;51.600;5.718;2023-03-13T05:18:00;7.55;;;1.85;;
48052;SDS011;33824;51.600;5.718;2023-03-13T05:20:26;6.63;;;2.03;;
48052;SDS011;33824;51.600;5.718;2023-03-13T05:22:51;7.43;;;2.65;;
48052;SDS011;33824;51.600;5.718;2023-03-13T05:25:17;4.03;;;1.98;;
48052;SDS011;33824;51.600;5.718;2023-03-13T05:27:42;5.43;;;4.25;;
48052;SDS011;33824;51.600;5.718;2023-03-13T05:30:10;8.25;;;2.38;;
48052;SDS011;33824;51.600;5.718;2023-03-13T05:32:36;3.60;;;1.52;;
48052;SDS011;33824;51.600;5.718;2023-03-13T05:35:01;4.13;;;1.67;;
48052;SDS011;33824;51.600;5.718;2023-03-13T05:37:27;5.28;;;2.67;;
48052;SDS011;33824;51.600;5.718;2023-03-13T05:39:52;3.72;;;1.90;;
48052;SDS011;33824;51.600;5.718;2023-03-13T05:42:18;7.07;;;1.80;;
48052;SDS011;33824;51.600;5.718;2023-03-13T05:44:43;4.50;;;1.60;;
48052;SDS011;33824;51.600;5.718;2023-03-13T05:47:09;5.80;;;1.63;;
48052;SDS011;33824;51.600;5.718;2023-03-13T05:49:36;11.63;;;2.33;;
48052;SDS011;33824;51.600;5.718;2023-03-13T05:52:02;6.00;;;1.88;;
48052;SDS011;33824;51.600;5.718;2023-03-13T05:54:27;7.93;;;1.98;;
48052;SDS011;33824;51.600;5.718;2023-03-13T05:56:53;8.38;;;2.00;;
48052;SDS011;33824;51.600;5.718;2023-03-13T05:59:18;7.65;;;1.60;;
48052;SDS011;33824;51.600;5.718;2023-03-13T06:01:44;6.10;;;1.88;;
48052;SDS011;33824;51.600;5.718;2023-03-13T06:04:09;7.97;;;2.00;;
48052;SDS011;33824;51.600;5.718;2023-03-13T06:06:35;8.40;;;1.80;;
48052;SDS011;33824;51.600;5.718;2023-03-13T06:09:00;6.88;;;1.55;;
48052;SDS011;33824;51.600;5.718;2023-03-13T06:11:26;8.30;;;2.03;;
48052;SDS011;33824;51.600;5.718;2023-03-13T06:13:52;4.20;;;1.50;;
48052;SDS011;33824;51.600;5.718;2023-03-13T06:16:17;10.25;;;9.30;;
48052;SDS011;33824;51.600;5.718;2023-03-13T06:18:43;10.05;;;3.33;;
48052;SDS011;33824;51.600;5.718;2023-03-13T06:21:09;7.78;;;1.70;;
48052;SDS011;33824;51.600;5.718;2023-03-13T06:23:35;4.68;;;1.38;;
48052;SDS011;33824;51.600;5.718;2023-03-13T06:26:01;6.22;;;1.85;;
48052;SDS011;33824;51.600;5.718;2023-03-13T06:28:27;5.45;;;1.60;;
48052;SDS011;33824;51.600;5.718;2023-03-13T06:30:52;6.53;;;1.88;;
48052;SDS011;33824;51.600;5.718;2023-03-13T06:33:18;9.73;;;2.60;;
48052;SDS011;33824;51.600;5.718;2023-03-13T06:35:43;5.97;;;1.70;;
48052;SDS011;33824;51.600;5.718;2023-03-13T06:38:09;5.72;;;1.60;;
48052;SDS011;33824;51.600;5.718;2023-03-13T06:40:35;6.43;;;1.85;;
48052;SDS011;33824;51.600;5.718;2023-03-13T06:43:01;5.60;;;1.73;;
48052;SDS011;33824;51.600;5.718;2023-03-13T06:45:26;6.15;;;2.00;;
48052;SDS011;33824;51.600;5.718;2023-03-13T06:47:52;6.05;;;1.60;;
48052;SDS011;33824;51.600;5.718;2023-03-13T06:50:17;9.15;;;2.00;;
48052;SDS011;33824;51.600;5.718;2023-03-13T06:52:44;7.20;;;1.92;;
48052;SDS011;33824;51.600;5.718;2023-03-13T06:55:11;6.85;;;1.92;;
48052;SDS011;33824;51.600;5.718;2023-03-13T06:57:37;8.32;;;1.73;;
48052;SDS011;33824;51.600;5.718;2023-03-13T07:00:02;8.68;;;2.75;;
48052;SDS011;33824;51.600;5.718;2023-03-13T07:02:30;7.82;;;2.00;;
48052;SDS011;33824;51.600;5.718;2023-03-13T07:04:56;10.00;;;2.30;;
48052;SDS011;33824;51.600;5.718;2023-03-13T07:07:22;10.15;;;2.55;;
48052;SDS011;33824;51.600;5.718;2023-03-13T07:09:47;12.77;;;1.70;;
48052;SDS011;33824;51.600;5.718;2023-03-13T07:12:13;8.02;;;2.00;;
48052;SDS011;33824;51.600;5.718;2023-03-13T07:14:38;9.77;;;2.10;;
48052;SDS011;33824;51.600;5.718;2023-03-13T07:17:07;9.25;;;2.38;;
48052;SDS011;33824;51.600;5.718;2023-03-13T07:19:32;6.32;;;1.48;;
48052;SDS011;33824;51.600;5.718;2023-03-13T07:21:58;10.85;;;2.20;;
48052;SDS011;33824;51.600;5.718;2023-03-13T07:24:23;6.05;;;1.88;;
48052;SDS011;33824;51.600;5.718;2023-03-13T07:26:49;5.90;;;1.55;;
48052;SDS011;33824;51.600;5.718;2023-03-13T07:29:14;6.40;;;2.10;;
48052;SDS011;33824;51.600;5.718;2023-03-13T07:31:40;10.65;;;2.00;;
48052;SDS011;33824;51.600;5.718;2023-03-13T07:34:07;13.80;;;1.80;;
48052;SDS011;33824;51.600;5.718;2023-03-13T07:36:33;5.45;;;1.50;;
48052;SDS011;33824;51.600;5.718;2023-03-13T07:38:59;9.43;;;2.42;;
48052;SDS011;33824;51.600;5.718;2023-03-13T07:41:25;7.80;;;2.08;;
48052;SDS011;33824;51.600;5.718;2023-03-13T07:43:50;11.75;;;2.22;;
48052;SDS011;33824;51.600;5.718;2023-03-13T07:46:17;11.57;;;2.30;;
48052;SDS011;33824;51.600;5.718;2023-03-13T07:48:44;6.82;;;1.52;;
48052;SDS011;33824;51.600;5.718;2023-03-13T07:51:14;6.13;;;2.00;;
48052;SDS011;33824;51.600;5.718;2023-03-13T07:53:45;9.75;;;1.83;;
48052;SDS011;33824;51.600;5.718;2023-03-13T07:56:14;11.73;;;2.25;;
48052;SDS011;33824;51.600;5.718;2023-03-13T07:58:42;6.25;;;1.38;;
48052;SDS011;33824;51.600;5.718;2023-03-13T08:03:35;9.77;;;2.00;;
48052;SDS011;33824;51.600;5.718;2023-03-13T08:06:03;6.15;;;1.75;;
48052;SDS011;33824;51.600;5.718;2023-03-13T08:08:31;6.45;;;1.45;;
48052;SDS011;33824;51.600;5.718;2023-03-13T08:11:01;10.55;;;1.88;;
48052;SDS011;33824;51.600;5.718;2023-03-13T08:13:27;7.32;;;2.10;;
48052;SDS011;33824;51.600;5.718;2023-03-13T08:16:00;8.75;;;1.45;;
48052;SDS011;33824;51.600;5.718;2023-03-13T08:18:26;4.03;;;1.20;;
48052;SDS011;33824;51.600;5.718;2023-03-13T08:20:52;6.20;;;1.50;;
48052;SDS011;33824;51.600;5.718;2023-03-13T08:23:17;6.93;;;1.67;;
48052;SDS011;33824;51.600;5.718;2023-03-13T08:25:43;9.13;;;1.63;;
48052;SDS011;33824;51.600;5.718;2023-03-13T08:28:08;6.05;;;1.63;;
48052;SDS011;33824;51.600;5.718;2023-03-13T08:30:35;6.45;;;1.90;;
48052;SDS011;33824;51.600;5.718;2023-03-13T08:33:01;9.10;;;1.52;;
48052;SDS011;33824;51.600;5.718;2023-03-13T08:35:27;9.13;;;1.65;;
48052;SDS011;33824;51.600;5.718;2023-03-13T08:37:54;12.15;;;2.83;;
48052;SDS011;33824;51.600;5.718;2023-03-13T08:40:20;8.60;;;1.60;;
48052;SDS011;33824;51.600;5.718;2023-03-13T08:42:45;5.20;;;1.20;;
48052;SDS011;33824;51.600;5.718;2023-03-13T08:45:11;8.65;;;1.60;;
48052;SDS011;33824;51.600;5.718;2023-03-13T08:47:36;10.65;;;1.60;;
48052;SDS011;33824;51.600;5.718;2023-03-13T08:50:02;6.25;;;1.30;;
48052;SDS011;33824;51.600;5.718;2023-03-13T08:52:28;6.03;;;1.40;;
48052;SDS011;33824;51.600;5.718;2023-03-13T08:54:54;5.50;;;1.50;;
48052;SDS011;33824;51.600;5.718;2023-03-13T08:57:19;8.75;;;1.58;;
48052;SDS011;33824;51.600;5.718;2023-03-13T08:59:45;6.30;;;3.10;;
48052;SDS011;33824;51.600;5.718;2023-03-13T09:02:10;9.18;;;4.78;;
48052;SDS011;33824;51.600;5.718;2023-03-13T09:04:36;6.90;;;2.95;;
48052;SDS011;33824;51.600;5.718;2023-03-13T09:07:02;4.18;;;1.38;;
48052;SDS011;33824;51.600;5.718;2023-03-13T09:09:27;6.65;;;1.38;;
48052;SDS011;33824;51.600;5.718;2023-03-13T09:11:53;5.10;;;1.60;;
48052;SDS011;33824;51.600;5.718;2023-03-13T09:14:18;2.85;;;1.80;;
48052;SDS011;33824;51.600;5.718;2023-03-13T09:16:44;6.28;;;4.38;;
48052;SDS011;33824;51.600;5.718;2023-03-13T09:19:12;8.60;;;1.92;;
48052;SDS011;33824;51.600;5.718;2023-03-13T09:21:38;5.95;;;1.40;;
48052;SDS011;33824;51.600;5.718;2023-03-13T09:24:03;7.10;;;1.48;;
48052;SDS011;33824;51.600;5.718;2023-03-13T09:26:29;6.70;;;1.77;;
48052;SDS011;33824;51.600;5.718;2023-03-13T09:28:55;8.80;;;1.75;;
48052;SDS011;33824;51.600;5.718;2023-03-13T09:33:48;9.23;;;2.65;;
48052;SDS011;33824;51.600;5.718;2023-03-13T09:36:15;5.72;;;1.48;;
48052;SDS011;33824;51.600;5.718;2023-03-13T09:38:42;6.57;;;1.40;;
48052;SDS011;33824;51.600;5.718;2023-03-13T09:46:21;11.07;;;1.73;;
48052;SDS011;33824;51.600;5.718;2023-03-13T09:49:03;4.78;;;1.42;;
48052;SDS011;33824;51.600;5.718;2023-03-13T09:51:37;4.03;;;1.25;;
48052;SDS011;33824;51.600;5.718;2023-03-13T09:56:55;8.18;;;1.13;;
48052;SDS011;33824;51.600;5.718;2023-03-13T10:04:50;3.72;;;1.30;;
48052;SDS011;33824;51.600;5.718;2023-03-13T10:07:22;2.60;;;1.20;;
48052;SDS011;33824;51.600;5.718;2023-03-13T10:09:47;3.92;;;1.30;;
48052;SDS011;33824;51.600;5.718;2023-03-13T10:12:16;8.40;;;1.35;;
48052;SDS011;33824;51.600;5.718;2023-03-13T10:15:05;3.67;;;1.20;;
48052;SDS011;33824;51.600;5.718;2023-03-13T10:17:45;5.03;;;2.25;;
48052;SDS011;33824;51.600;5.718;2023-03-13T10:20:28;2.65;;;1.10;;
48052;SDS011;33824;51.600;5.718;2023-03-13T10:23:00;4.28;;;1.50;;
48052;SDS011;33824;51.600;5.718;2023-03-13T10:25:33;3.80;;;1.45;;
48052;SDS011;33824;51.600;5.718;2023-03-13T10:28:02;4.68;;;1.70;;
48052;SDS011;33824;51.600;5.718;2023-03-13T10:30:32;1.63;;;1.13;;
48052;SDS011;33824;51.600;5.718;2023-03-13T10:35:32;5.63;;;1.23;;
48052;SDS011;33824;51.600;5.718;2023-03-13T10:38:20;4.70;;;1.50;;
48052;SDS011;33824;51.600;5.718;2023-03-13T10:40:59;4.22;;;1.30;;
48052;SDS011;33824;51.600;5.718;2023-03-13T10:43:26;4.85;;;1.90;;
48052;SDS011;33824;51.600;5.718;2023-03-13T10:45:53;7.05;;;1.70;;
48052;SDS011;33824;51.600;5.718;2023-03-13T10:48:20;8.80;;;7.85;;
48052;SDS011;33824;51.600;5.718;2023-03-13T10:50:49;5.63;;;1.33;;
48052;SDS011;33824;51.600;5.718;2023-03-13T10:55:59;3.60;;;0.88;;
48052;SDS011;33824;51.600;5.718;2023-03-13T10:58:42;2.85;;;2.08;;
48052;SDS011;33824;51.600;5.718;2023-03-13T11:01:21;4.05;;;1.30;;
48052;SDS011;33824;51.600;5.718;2023-03-13T11:03:49;5.80;;;0.90;;
48052;SDS011;33824;51.600;5.718;2023-03-13T11:06:27;3.35;;;0.85;;
48052;SDS011;33824;51.600;5.718;2023-03-13T11:11:50;2.90;;;1.10;;
48052;SDS011;33824;51.600;5.718;2023-03-13T11:14:25;7.10;;;6.45;;
48052;SDS011;33824;51.600;5.718;2023-03-13T11:16:53;24.67;;;22.83;;
48052;SDS011;33824;51.600;5.718;2023-03-13T11:19:28;2.92;;;0.90;;
48052;SDS011;33824;51.600;5.718;2023-03-13T11:22:00;9.82;;;8.98;;
48052;SDS011;33824;51.600;5.718;2023-03-13T11:24:39;2.03;;;0.80;;
48052;SDS011;33824;51.600;5.718;2023-03-13T11:32:40;2.38;;;0.65;;
48052;SDS011;33824;51.600;5.718;2023-03-13T11:35:15;4.05;;;1.33;;
48052;SDS011;33824;51.600;5.718;2023-03-13T11:37:48;1.98;;;1.13;;
48052;SDS011;33824;51.600;5.718;2023-03-13T11:40:25;3.33;;;0.90;;
48052;SDS011;33824;51.600;5.718;2023-03-13T11:56:50;2.23;;;0.90;;
48052;SDS011;33824;51.600;5.718;2023-03-13T11:59:24;3.95;;;1.08;;
48052;SDS011;33824;51.600;5.718;2023-03-13T12:02:19;7.80;;;1.40;;
48052;SDS011;33824;51.600;5.718;2023-03-13T12:04:51;6.05;;;1.88;;
48052;SDS011;33824;51.600;5.718;2023-03-13T12:07:24;3.58;;;1.50;;
48052;SDS011;33824;51.600;5.718;2023-03-13T12:12:48;6.55;;;1.92;;
48052;SDS011;33824;51.600;5.718;2023-03-13T12:26:37;4.60;;;1.45;;
48052;SDS011;33824;51.600;5.718;2023-03-13T12:29:11;3.67;;;1.35;;
48052;SDS011;33824;51.600;5.718;2023-03-13T12:31:52;1.50;;;0.85;;
48052;SDS011;33824;51.600;5.718;2023-03-13T12:34:35;3.35;;;1.17;;
48052;SDS011;33824;51.600;5.718;2023-03-13T12:39:51;2.85;;;0.90;;
48052;SDS011;33824;51.600;5.718;2023-03-13T12:45:18;3.42;;;1.60;;
48052;SDS011;33824;51.600;5.718;2023-03-13T12:48:00;10.93;;;7.03;;
48052;SDS011;33824;51.600;5.718;2023-03-13T12:50:54;5.45;;;1.20;;
48052;SDS011;33824;51.600;5.718;2023-03-13T12:59:21;3.78;;;1.20;;
48052;SDS011;33824;51.600;5.718;2023-03-13T13:01:53;5.60;;;1.95;;
48052;SDS011;33824;51.600;5.718;2023-03-13T13:04:27;4.30;;;1.90;;
48052;SDS011;33824;51.600;5.718;2023-03-13T13:07:00;3.28;;;1.45;;
48052;SDS011;33824;51.600;5.718;2023-03-13T13:13:15;6.35;;;3.03;;
48052;SDS011;33824;51.600;5.718;2023-03-13T13:15:40;3.83;;;1.10;;
48052;SDS011;33824;51.600;5.718;2023-03-13T13:18:23;3.78;;;1.10;;
48052;SDS011;33824;51.600;5.718;2023-03-13T13:21:40;7.65;;;1.63;;
48052;SDS011;33824;51.600;5.718;2023-03-13T13:23:46;5.90;;;2.85;;
48052;SDS011;33824;51.600;5.718;2023-03-13T13:36:52;3.13;;;1.08;;
48052;SDS011;33824;51.600;5.718;2023-03-13T13:44:56;5.65;;;1.08;;
48052;SDS011;33824;51.600;5.718;2023-03-13T13:47:24;4.32;;;1.00;;
48052;SDS011;33824;51.600;5.718;2023-03-13T13:49:55;5.93;;;4.28;;
48052;SDS011;33824;51.600;5.718;2023-03-13T13:57:47;5.57;;;1.17;;
48052;SDS011;33824;51.600;5.718;2023-03-13T14:00:17;3.35;;;0.80;;
48052;SDS011;33824;51.600;5.718;2023-03-13T14:02:48;2.65;;;0.80;;
48052;SDS011;33824;51.600;5.718;2023-03-13T14:05:22;3.13;;;1.13;;
48052;SDS011;33824;51.600;5.718;2023-03-13T14:07:55;2.13;;;1.33;;
48052;SDS011;33824;51.600;5.718;2023-03-13T14:10:33;5.30;;;1.50;;
48052;SDS011;33824;51.600;5.718;2023-03-13T14:13:15;2.90;;;0.98;;
48052;SDS011;33824;51.600;5.718;2023-03-13T14:15:44;4.18;;;1.83;;
48052;SDS011;33824;51.600;5.718;2023-03-13T14:23:31;5.55;;;1.00;;
48052;SDS011;33824;51.600;5.718;2023-03-13T14:25:57;4.68;;;1.27;;
48052;SDS011;33824;51.600;5.718;2023-03-13T14:28:27;2.90;;;1.05;;
48052;SDS011;33824;51.600;5.718;2023-03-13T14:30:54;8.07;;;6.97;;
48052;SDS011;33824;51.600;5.718;2023-03-13T14:33:22;3.33;;;0.80;;
48052;SDS011;33824;51.600;5.718;2023-03-13T14:35:49;3.90;;;0.95;;
48052;SDS011;33824;51.600;5.718;2023-03-13T14:38:16;4.97;;;1.38;;
48052;SDS011;33824;51.600;5.718;2023-03-13T14:40:42;2.88;;;0.98;;
48052;SDS011;33824;51.600;5.718;2023-03-13T14:43:16;3.60;;;1.10;;
48052;SDS011;33824;51.600;5.718;2023-03-13T14:46:00;8.15;;;1.00;;
48052;SDS011;33824;51.600;5.718;2023-03-13T14:48:45;4.38;;;0.98;;
48052;SDS011;33824;51.600;5.718;2023-03-13T14:51:15;7.25;;;1.20;;
48052;SDS011;33824;51.600;5.718;2023-03-13T14:53:56;4.03;;;1.00;;
48052;SDS011;33824;51.600;5.718;2023-03-13T14:56:29;4.93;;;0.85;;
48052;SDS011;33824;51.600;5.718;2023-03-13T14:59:15;3.10;;;0.95;;
48052;SDS011;33824;51.600;5.718;2023-03-13T15:02:09;4.40;;;1.30;;
48052;SDS011;33824;51.600;5.718;2023-03-13T15:04:59;4.40;;;1.10;;
48052;SDS011;33824;51.600;5.718;2023-03-13T15:07:33;1.85;;;0.93;;
48052;SDS011;33824;51.600;5.718;2023-03-13T15:09:59;6.32;;;1.15;;
48052;SDS011;33824;51.600;5.718;2023-03-13T15:12:27;2.20;;;0.90;;
48052;SDS011;33824;51.600;5.718;2023-03-13T15:14:55;2.67;;;1.00;;
48052;SDS011;33824;51.600;5.718;2023-03-13T15:17:23;4.82;;;1.00;;
48052;SDS011;33824;51.600;5.718;2023-03-13T15:19:51;2.50;;;0.98;;
48052;SDS011;33824;51.600;5.718;2023-03-13T15:22:30;3.78;;;0.98;;
48052;SDS011;33824;51.600;5.718;2023-03-13T15:24:57;4.05;;;1.00;;
48052;SDS011;33824;51.600;5.718;2023-03-13T15:27:23;3.47;;;1.05;;
48052;SDS011;33824;51.600;5.718;2023-03-13T15:29:50;4.43;;;1.10;;
48052;SDS011;33824;51.600;5.718;2023-03-13T15:32:49;4.03;;;0.70;;
48052;SDS011;33824;51.600;5.718;2023-03-13T15:35:20;5.50;;;1.08;;
48052;SDS011;33824;51.600;5.718;2023-03-13T15:37:48;5.43;;;1.23;;
48052;SDS011;33824;51.600;5.718;2023-03-13T15:40:14;2.90;;;1.15;;
48052;SDS011;33824;51.600;5.718;2023-03-13T15:42:41;4.05;;;1.10;;
48052;SDS011;33824;51.600;5.718;2023-03-13T15:45:07;3.38;;;0.80;;
48052;SDS011;33824;51.600;5.718;2023-03-13T15:47:33;4.38;;;1.15;;
48052;SDS011;33824;51.600;5.718;2023-03-13T15:49:59;6.30;;;1.25;;
48052;SDS011;33824;51.600;5.718;2023-03-13T15:52:24;5.95;;;1.00;;
48052;SDS011;33824;51.600;5.718;2023-03-13T15:54:50;5.30;;;1.33;;
48052;SDS011;33824;51.600;5.718;2023-03-13T15:57:23;7.75;;;1.10;;
48052;SDS011;33824;51.600;5.718;2023-03-13T15:59:51;1.98;;;0.77;;
48052;SDS011;33824;51.600;5.718;2023-03-13T16:02:18;6.80;;;1.63;;
48052;SDS011;33824;51.600;5.718;2023-03-13T16:04:46;6.35;;;1.35;;
48052;SDS011;33824;51.600;5.718;2023-03-13T16:07:16;4.03;;;1.15;;
48052;SDS011;33824;51.600;5.718;2023-03-13T16:09:45;7.22;;;1.45;;
48052;SDS011;33824;51.600;5.718;2023-03-13T16:12:11;4.88;;;0.88;;
48052;SDS011;33824;51.600;5.718;2023-03-13T16:14:37;5.28;;;1.13;;
48052;SDS011;33824;51.600;5.718;2023-03-13T16:17:09;8.88;;;1.55;;
48052;SDS011;33824;51.600;5.718;2023-03-13T16:19:46;7.82;;;1.30;;
48052;SDS011;33824;51.600;5.718;2023-03-13T16:22:12;9.02;;;1.20;;
48052;SDS011;33824;51.600;5.718;2023-03-13T16:24:39;6.10;;;1.25;;
48052;SDS011;33824;51.600;5.718;2023-03-13T16:27:15;5.80;;;1.35;;
48052;SDS011;33824;51.600;5.718;2023-03-13T16:29:42;7.30;;;1.13;;
48052;SDS011;33824;51.600;5.718;2023-03-13T16:32:12;7.40;;;1.13;;
48052;SDS011;33824;51.600;5.718;2023-03-13T16:34:40;3.63;;;1.07;;
48052;SDS011;33824;51.600;5.718;2023-03-13T16:37:15;6.13;;;1.40;;
48052;SDS011;33824;51.600;5.718;2023-03-13T16:39:43;3.40;;;1.23;;
48052;SDS011;33824;51.600;5.718;2023-03-13T16:42:10;9.05;;;1.48;;
48052;SDS011;33824;51.600;5.718;2023-03-13T16:44:36;7.90;;;1.42;;
48052;SDS011;33824;51.600;5.718;2023-03-13T16:47:01;5.35;;;1.00;;